Time;durP1;ratioP1;P1;durP2;ratioP2;P2;SDS_P1;SDS_P2;PMS_P1;PMS_P2;Temp;Humidity;BMP_temperature;BMP_pressure;BME280_temperature;BME280_humidity;BME280_pressure;Samples;Min_cycle;Max_cycle;Signal;HPM_P1;HPM_P2
2023/07/31 00:01:51;;;;;;;3.72;1.70;;;;;14.40;94197.00;;;;7397485;19;20137;-76
2023/07/31 00:04:19;;;;;;;6.10;1.83;;;;;14.20;94206.00;;;;7396476;19;20160;-78
2023/07/31 00:06:55;;;;;;;5.90;1.90;;;;;14.20;94213.00;;;;7400180;19;20508;-79
2023/07/31 00:09:23;;;;;;;6.88;2.08;;;;;14.00;94204.00;;;;7399394;19;20148;-79
2023/07/31 00:11:51;;;;;;;5.85;2.00;;;;;13.90;94207.00;;;;7395758;19;20651;-79
2023/07/31 00:14:26;;;;;;;4.78;1.70;;;;;13.80;94205.00;;;;7399906;19;20132;-80
2023/07/31 00:16:55;;;;;;;4.90;2.03;;;;;13.90;94202.00;;;;7399946;19;20136;-80
2023/07/31 00:19:22;;;;;;;7.88;2.00;;;;;13.90;94194.00;;;;7400189;19;20664;-77
2023/07/31 00:21:56;;;;;;;5.00;2.10;;;;;13.80;94200.00;;;;7399985;19;20147;-76
2023/07/31 00:24:25;;;;;;;5.90;2.13;;;;;13.90;94195.00;;;;7394457;19;20158;-76
2023/07/31 00:27:01;;;;;;;3.67;1.55;;;;;13.80;94189.00;;;;7389753;19;20609;-75
2023/07/31 00:29:30;;;;;;;5.70;1.67;;;;;13.80;94184.00;;;;7400585;19;20137;-76
2023/07/31 00:32:06;;;;;;;3.10;1.67;;;;;13.90;94192.00;;;;7399611;19;20133;-76
2023/07/31 00:34:33;;;;;;;5.57;2.13;;;;;13.90;94195.00;;;;7399963;19;20137;-75
2023/07/31 00:37:10;;;;;;;5.65;2.00;;;;;13.90;94188.00;;;;7397059;19;20144;-77
2023/07/31 00:39:44;;;;;;;4.38;2.05;;;;;13.90;94184.00;;;;7398584;19;20144;-74
2023/07/31 00:42:18;;;;;;;4.88;1.95;;;;;14.00;94184.00;;;;7399480;19;20488;-76
2023/07/31 00:44:52;;;;;;;4.05;1.83;;;;;14.10;94185.00;;;;7400665;19;20621;-75
2023/07/31 00:47:20;;;;;;;2.70;1.60;;;;;14.00;94188.00;;;;7398538;19;20173;-76
2023/07/31 00:49:55;;;;;;;3.85;1.85;;;;;14.10;94193.00;;;;7398916;19;20148;-75
2023/07/31 00:52:23;;;;;;;3.78;1.90;;;;;14.10;94181.00;;;;7397465;19;20170;-76
2023/07/31 00:54:59;;;;;;;2.17;1.50;;;;;14.00;94184.00;;;;7398703;19;20147;-75
2023/07/31 00:57:27;;;;;;;4.32;2.03;;;;;14.00;94179.00;;;;7398223;19;20129;-75
2023/07/31 01:00:01;;;;;;;4.22;1.80;;;;;13.90;94170.00;;;;7397332;19;20188;-75
2023/07/31 01:02:29;;;;;;;4.03;2.00;;;;;13.90;94176.00;;;;7396213;19;20165;-77
2023/07/31 01:05:10;;;;;;;5.60;2.22;;;;;14.00;94166.00;;;;7396021;19;20235;-78
2023/07/31 01:08:26;;;;;;;3.17;1.88;;;;;14.30;94173.00;;;;7397541;19;20132;-76
2023/07/31 01:11:26;;;;;;;3.63;1.85;;;;;14.20;94160.00;;;;7396576;19;20618;-77
2023/07/31 01:14:01;;;;;;;4.75;1.67;;;;;14.20;94167.00;;;;7395877;19;20612;-76
2023/07/31 01:16:36;;;;;;;4.25;2.03;;;;;14.20;94171.00;;;;7394988;19;20483;-76
2023/07/31 01:19:14;;;;;;;3.47;1.90;;;;;14.10;94173.00;;;;7395130;19;20153;-74
2023/07/31 01:22:18;;;;;;;6.05;2.13;;;;;14.10;94168.00;;;;7396138;19;20132;-75
2023/07/31 01:25:17;;;;;;;4.70;1.67;;;;;14.00;94165.00;;;;7397559;19;20573;-75
2023/07/31 01:27:56;;;;;;;3.60;1.70;;;;;13.90;94157.00;;;;7398597;19;20137;-76
2023/07/31 01:30:38;;;;;;;5.85;2.45;;;;;13.80;94160.00;;;;7397404;19;20204;-76
2023/07/31 01:33:16;;;;;;;2.97;1.70;;;;;13.80;94159.00;;;;7399194;19;20488;-74
2023/07/31 01:35:50;;;;;;;7.68;2.22;;;;;13.90;94157.00;;;;7396412;19;21035;-74
2023/07/31 01:38:24;;;;;;;3.55;1.85;;;;;13.70;94147.00;;;;7391169;19;20502;-76
2023/07/31 01:40:58;;;;;;;9.32;2.25;;;;;13.70;94149.00;;;;7397852;19;20573;-76
2023/07/31 01:43:25;;;;;;;4.90;2.08;;;;;13.70;94147.00;;;;7395836;19;20148;-75
2023/07/31 01:46:00;;;;;;;6.47;2.00;;;;;13.70;94146.00;;;;7396452;19;20132;-76
2023/07/31 01:48:29;;;;;;;5.78;2.05;;;;;13.70;94144.00;;;;7398128;19;20133;-76
2023/07/31 01:51:03;;;;;;;6.78;2.13;;;;;13.60;94146.00;;;;7398247;19;20137;-75
2023/07/31 01:53:32;;;;;;;4.45;1.83;;;;;13.60;94146.00;;;;7397214;19;20141;-75
2023/07/31 01:56:08;;;;;;;3.63;1.85;;;;;13.60;94143.00;;;;7397877;19;20135;-76
2023/07/31 01:58:36;;;;;;;7.88;1.83;;;;;13.60;94130.00;;;;7397087;19;20527;-78
2023/07/31 02:01:10;;;;;;;5.78;2.00;;;;;13.50;94128.00;;;;7395549;19;20177;-74
2023/07/31 02:03:37;;;;;;;3.45;2.17;;;;;13.50;94131.00;;;;7397609;19;20140;-75
2023/07/31 02:06:18;;;;;;;8.85;2.20;;;;;13.50;94126.00;;;;7396543;19;20148;-74
2023/07/31 02:08:46;;;;;;;2.67;1.83;;;;;13.50;94125.00;;;;7395629;19;20510;-75
2023/07/31 02:11:20;;;;;;;6.63;2.17;;;;;13.50;94133.00;;;;7393470;19;20244;-77
2023/07/31 02:13:48;;;;;;;3.90;2.05;;;;;13.50;94129.00;;;;7397584;19;20139;-76
2023/07/31 02:16:22;;;;;;;6.75;2.10;;;;;13.50;94121.00;;;;7394831;19;20308;-74
2023/07/31 02:18:50;;;;;;;9.25;2.33;;;;;13.60;94112.00;;;;7396381;19;20141;-74
2023/07/31 02:21:25;;;;;;;6.40;1.85;;;;;13.50;94112.00;;;;7397313;19;20133;-75
2023/07/31 02:23:53;;;;;;;4.05;2.15;;;;;13.40;94108.00;;;;7396607;19;20211;-76
2023/07/31 02:26:27;;;;;;;5.75;2.00;;;;;13.30;94099.00;;;;7393812;19;20581;-76
2023/07/31 02:29:06;;;;;;;6.30;1.83;;;;;13.30;94095.00;;;;7395456;19;20141;-79
2023/07/31 02:31:40;;;;;;;5.00;2.17;;;;;13.20;94092.00;;;;7397400;19;20128;-76
2023/07/31 02:34:09;;;;;;;4.25;2.22;;;;;13.30;94101.00;;;;7396926;19;20200;-79
2023/07/31 02:36:43;;;;;;;6.55;2.35;;;;;13.30;94091.00;;;;7395274;19;20127;-76
2023/07/31 02:39:10;;;;;;;12.40;2.38;;;;;13.20;94094.00;;;;7397150;19;20619;-76
2023/07/31 02:41:46;;;;;;;3.22;1.67;;;;;13.20;94092.00;;;;7394407;19;20637;-72
2023/07/31 02:44:15;;;;;;;5.85;2.25;;;;;13.20;94089.00;;;;7395570;19;20149;-77
2023/07/31 02:46:50;;;;;;;7.47;2.28;;;;;13.20;94091.00;;;;7397142;19;20472;-76
2023/07/31 02:49:17;;;;;;;6.60;2.13;;;;;13.20;94087.00;;;;7393365;19;20137;-76
2023/07/31 02:51:52;;;;;;;13.90;2.55;;;;;13.10;94089.00;;;;7394604;19;20136;-75
2023/07/31 02:54:27;;;;;;;4.35;1.88;;;;;13.20;94083.00;;;;7395135;19;20140;-76
2023/07/31 02:56:56;;;;;;;4.15;1.98;;;;;13.20;94092.00;;;;7393982;19;20350;-76
2023/07/31 02:59:31;;;;;;;5.65;2.17;;;;;13.20;94094.00;;;;7396009;19;20732;-75
2023/07/31 03:02:06;;;;;;;4.45;2.53;;;;;13.10;94097.00;;;;7393116;19;20172;-74
2023/07/31 03:04:46;;;;;;;3.10;2.00;;;;;13.10;94098.00;;;;7393959;19;20147;-76
2023/07/31 03:07:21;;;;;;;6.10;2.20;;;;;13.20;94093.00;;;;7394174;19;20129;-74
2023/07/31 03:09:55;;;;;;;8.75;2.10;;;;;13.20;94100.00;;;;7393976;19;20220;-76
2023/07/31 03:12:29;;;;;;;9.10;2.70;;;;;13.00;94094.00;;;;7394861;19;20160;-75
2023/07/31 03:14:58;;;;;;;4.90;2.10;;;;;13.00;94099.00;;;;7393887;19;20496;-74
2023/07/31 03:17:33;;;;;;;6.47;2.15;;;;;13.10;94098.00;;;;7392571;19;20148;-74
2023/07/31 03:20:02;;;;;;;3.58;1.90;;;;;13.20;94102.00;;;;7394866;19;20149;-77
2023/07/31 03:22:36;;;;;;;4.00;1.80;;;;;13.30;94097.00;;;;7398556;19;20477;-76
2023/07/31 03:25:11;;;;;;;3.72;1.70;;;;;13.20;94104.00;;;;7401223;19;20496;-76
2023/07/31 03:27:50;;;;;;;6.18;1.58;;;;;13.40;94099.00;;;;7399532;19;20616;-76
2023/07/31 03:30:18;;;;;;;5.78;1.90;;;;;13.40;94095.00;;;;7402850;19;20133;-77
2023/07/31 03:32:53;;;;;;;8.30;2.20;;;;;13.30;94096.00;;;;7401432;19;20161;-75
2023/07/31 03:35:29;;;;;;;7.28;2.17;;;;;13.40;94100.00;;;;7402708;19;20599;-78
2023/07/31 03:37:57;;;;;;;6.75;2.08;;;;;13.50;94098.00;;;;7399397;19;20672;-78
2023/07/31 03:40:25;;;;;;;7.43;3.03;;;;;13.50;94101.00;;;;7402483;19;20485;-75
2023/07/31 03:43:01;;;;;;;5.63;2.55;;;;;13.80;94094.00;;;;7401755;19;20165;-76
2023/07/31 03:45:35;;;;;;;4.68;2.03;;;;;13.80;94082.00;;;;7401179;19;20437;-73
2023/07/31 03:48:09;;;;;;;6.93;2.20;;;;;13.80;94099.00;;;;7400448;19;20133;-76
2023/07/31 03:50:45;;;;;;;2.67;1.92;;;;;13.80;94093.00;;;;7401320;19;20136;-76
2023/07/31 03:53:19;;;;;;;4.85;2.38;;;;;13.70;94097.00;;;;7402335;19;20620;-73
2023/07/31 03:55:54;;;;;;;3.47;2.15;;;;;13.80;94085.00;;;;7400750;19;20144;-74
2023/07/31 03:58:28;;;;;;;5.90;1.83;;;;;13.90;94089.00;;;;7397914;19;20139;-74
2023/07/31 04:00:55;;;;;;;3.95;1.90;;;;;14.00;94089.00;;;;7400229;19;20164;-74
2023/07/31 04:03:43;;;;;;;4.10;2.10;;;;;13.90;94072.00;;;;7401593;19;20156;-75
2023/07/31 04:06:18;;;;;;;6.53;2.28;;;;;14.10;94070.00;;;;7400242;19;20137;-73
2023/07/31 04:08:56;;;;;;;6.40;2.45;;;;;14.10;94075.00;;;;7400072;19;20600;-76
2023/07/31 04:11:31;;;;;;;3.38;2.17;;;;;14.10;94073.00;;;;7399517;19;20192;-74
2023/07/31 04:14:05;;;;;;;3.92;2.13;;;;;14.10;94078.00;;;;7396109;19;20596;-76
2023/07/31 04:16:40;;;;;;;14.35;2.30;;;;;14.10;94082.00;;;;7399537;19;20128;-76
2023/07/31 04:19:16;;;;;;;5.10;2.10;;;;;14.10;94075.00;;;;7398343;19;20603;-76
2023/07/31 04:21:50;;;;;;;4.88;2.15;;;;;14.00;94082.00;;;;7401162;19;20137;-76
2023/07/31 04:24:24;;;;;;;3.58;1.95;;;;;14.00;94085.00;;;;7399370;19;20493;-73
2023/07/31 04:26:58;;;;;;;5.07;2.10;;;;;13.80;94092.00;;;;7398935;19;20170;-75
2023/07/31 04:29:32;;;;;;;4.78;2.03;;;;;13.90;94087.00;;;;7399942;19;20623;-74
2023/07/31 04:32:00;;;;;;;4.47;2.03;;;;;13.90;94091.00;;;;7399111;19;20136;-78
2023/07/31 04:34:27;;;;;;;3.42;1.98;;;;;13.90;94084.00;;;;7398563;19;20145;-75
2023/07/31 04:37:07;;;;;;;6.20;2.10;;;;;13.70;94074.00;;;;7398411;19;20140;-77
2023/07/31 04:39:35;;;;;;;6.93;2.00;;;;;13.70;94087.00;;;;7391784;19;20165;-78
2023/07/31 04:42:10;;;;;;;5.90;2.30;;;;;13.80;94076.00;;;;7397592;19;20161;-78
2023/07/31 04:44:46;;;;;;;4.43;2.17;;;;;13.80;94080.00;;;;7398459;19;20158;-77
2023/07/31 04:47:20;;;;;;;5.43;2.20;;;;;13.90;94079.00;;;;7400760;19;20619;-77
2023/07/31 04:49:57;;;;;;;6.10;1.98;;;;;13.70;94067.00;;;;7399183;19;20137;-75
2023/07/31 04:52:31;;;;;;;6.13;2.33;;;;;13.70;94074.00;;;;7399455;19;20164;-78
2023/07/31 04:55:06;;;;;;;4.18;2.20;;;;;13.90;94082.00;;;;7397419;19;20459;-77
2023/07/31 04:57:39;;;;;;;3.22;2.30;;;;;13.90;94073.00;;;;7399182;19;20544;-78
2023/07/31 05:00:14;;;;;;;4.50;2.03;;;;;13.80;94078.00;;;;7398893;19;20147;-76
2023/07/31 05:02:42;;;;;;;5.80;2.17;;;;;13.80;94075.00;;;;7398118;19;20168;-77
2023/07/31 05:05:30;;;;;;;4.78;2.03;;;;;13.90;94071.00;;;;7398964;19;20595;-75
2023/07/31 05:08:07;;;;;;;5.03;2.30;;;;;14.10;94065.00;;;;7398480;19;20148;-78
2023/07/31 05:10:42;;;;;;;5.18;1.95;;;;;14.10;94056.00;;;;7398609;19;20515;-79
2023/07/31 05:13:10;;;;;;;7.13;2.20;;;;;14.30;94054.00;;;;7399773;19;20616;-77
2023/07/31 05:15:45;;;;;;;6.80;2.35;;;;;14.50;94066.00;;;;7400401;19;20157;-75
2023/07/31 05:18:12;;;;;;;8.88;2.05;;;;;14.70;94063.00;;;;7397908;19;20136;-76
2023/07/31 05:20:46;;;;;;;6.60;2.20;;;;;14.70;94072.00;;;;7397233;19;20216;-78
2023/07/31 05:23:21;;;;;;;4.47;2.00;;;;;14.80;94073.00;;;;7398086;19;20155;-74
2023/07/31 05:25:55;;;;;;;6.75;2.20;;;;;14.80;94074.00;;;;7399445;19;20132;-76
2023/07/31 05:28:23;;;;;;;4.20;2.20;;;;;14.80;94070.00;;;;7398489;19;20451;-76
2023/07/31 05:31:00;;;;;;;3.88;2.25;;;;;15.00;94066.00;;;;7397763;19;20148;-76
2023/07/31 05:33:28;;;;;;;3.75;2.00;;;;;14.90;94073.00;;;;7399243;19;20616;-76
2023/07/31 05:36:03;;;;;;;4.00;2.10;;;;;15.00;94069.00;;;;7397267;19;20128;-77
2023/07/31 05:38:32;;;;;;;3.13;1.88;;;;;15.10;94062.00;;;;7398413;19;20132;-77
2023/07/31 05:41:09;;;;;;;3.50;1.80;;;;;14.90;94063.00;;;;7398773;19;20144;-76
2023/07/31 05:43:37;;;;;;;4.80;2.03;;;;;14.90;94063.00;;;;7396982;19;20151;-75
2023/07/31 05:46:17;;;;;;;2.58;1.77;;;;;14.90;94072.00;;;;7396664;19;20145;-75
2023/07/31 05:48:45;;;;;;;6.05;2.10;;;;;14.90;94062.00;;;;7398792;19;20129;-74
2023/07/31 05:51:19;;;;;;;3.50;1.95;;;;;15.00;94066.00;;;;7397416;19;20141;-74
2023/07/31 05:53:47;;;;;;;4.07;1.92;;;;;15.10;94071.00;;;;7396340;19;20187;-74
2023/07/31 05:56:21;;;;;;;3.55;2.00;;;;;15.10;94057.00;;;;7396978;19;20153;-77
2023/07/31 05:58:56;;;;;;;5.93;2.22;;;;;15.30;94053.00;;;;7397592;19;20263;-76
2023/07/31 06:01:31;;;;;;;4.53;2.10;;;;;15.30;94060.00;;;;7397219;19;20168;-76
2023/07/31 06:04:12;;;;;;;6.05;2.20;;;;;15.50;94050.00;;;;7395545;19;20165;-74
2023/07/31 06:06:57;;;;;;;3.97;2.20;;;;;15.50;94053.00;;;;7395632;19;20682;-76
2023/07/31 06:09:32;;;;;;;3.58;2.05;;;;;15.70;94043.00;;;;7398280;19;20150;-74
2023/07/31 06:12:06;;;;;;;3.25;1.90;;;;;15.70;94042.00;;;;7396512;19;20147;-75
2023/07/31 06:14:41;;;;;;;6.18;2.40;;;;;15.90;94047.00;;;;7396445;19;20156;-74
2023/07/31 06:17:17;;;;;;;4.68;2.17;;;;;16.10;94047.00;;;;7398017;19;20141;-74
2023/07/31 06:19:44;;;;;;;4.88;2.20;;;;;16.00;94052.00;;;;7396020;19;20603;-74
2023/07/31 06:22:19;;;;;;;6.63;2.22;;;;;16.00;94043.00;;;;7396120;19;20167;-74
2023/07/31 06:24:47;;;;;;;5.13;2.08;;;;;15.80;94047.00;;;;7397592;19;20133;-73
2023/07/31 06:27:26;;;;;;;5.95;1.98;;;;;15.90;94037.00;;;;7394892;19;20151;-74
2023/07/31 06:29:54;;;;;;;3.50;2.00;;;;;15.90;94036.00;;;;7395663;19;20514;-75
2023/07/31 06:32:50;;;;;;;2.50;1.75;;;;;16.00;94050.00;;;;6918012;19;9947799;-75
2023/07/31 06:35:26;;;;;;;3.35;2.10;;;;;16.00;94045.00;;;;7428299;19;20236;-77
2023/07/31 06:38:02;;;;;;;2.97;1.90;;;;;15.90;94053.00;;;;7407650;19;20457;-73
2023/07/31 06:40:31;;;;;;;5.75;2.10;;;;;15.90;94014.00;;;;7410887;19;20647;-79
2023/07/31 06:42:59;;;;;;;6.75;2.08;;;;;16.00;94067.00;;;;7416859;19;20132;-74
2023/07/31 06:45:33;;;;;;;4.22;1.95;;;;;16.30;94052.00;;;;7417731;19;20584;-74
2023/07/31 06:48:03;;;;;;;4.53;1.80;;;;;16.50;94068.00;;;;7420514;19;20503;-74
2023/07/31 06:50:44;;;;;;;9.82;2.03;;;;;16.40;94062.00;;;;7420589;19;20157;-75
2023/07/31 06:53:12;;;;;;;5.85;1.95;;;;;16.70;94054.00;;;;7418182;19;20150;-73
2023/07/31 06:55:48;;;;;;;5.93;2.50;;;;;16.90;94053.00;;;;7420314;19;20151;-72
2023/07/31 06:58:22;;;;;;;8.07;2.55;;;;;17.00;94059.00;;;;7420582;19;20148;-72
2023/07/31 07:00:56;;;;;;;3.47;2.10;;;;;17.10;94060.00;;;;7418197;19;20575;-74
2023/07/31 07:03:25;;;;;;;4.50;2.20;;;;;16.80;94062.00;;;;7419111;19;20155;-76
2023/07/31 07:05:55;;;;;;;3.40;1.95;;;;;16.60;94061.00;;;;7419100;19;20485;-74
2023/07/31 07:08:31;;;;;;;3.28;2.03;;;;;16.70;94051.00;;;;7418308;19;20165;-72
2023/07/31 07:10:59;;;;;;;4.20;1.92;;;;;16.70;94055.00;;;;7417757;19;20193;-72
2023/07/31 07:13:33;;;;;;;3.85;1.90;;;;;16.70;94052.00;;;;7417699;19;20552;-73
2023/07/31 07:16:03;;;;;;;4.63;2.20;;;;;16.40;94050.00;;;;7420184;19;20120;-75
2023/07/31 07:18:31;;;;;;;5.90;2.28;;;;;16.40;94049.00;;;;7417866;19;22603;-74
2023/07/31 07:21:23;;;;;;;10.80;2.30;;;;;16.30;94040.00;;;;7418003;19;20147;-73
2023/07/31 07:23:51;;;;;;;4.22;2.10;;;;;16.50;94046.00;;;;7417322;19;20156;-74
2023/07/31 07:26:25;;;;;;;2.35;1.83;;;;;16.60;94041.00;;;;7419398;19;20155;-73
2023/07/31 07:28:53;;;;;;;3.92;2.00;;;;;16.90;94038.00;;;;7415640;19;20153;-74
2023/07/31 07:31:21;;;;;;;4.13;2.20;;;;;17.20;94044.00;;;;7417783;19;20160;-71
2023/07/31 07:34:02;;;;;;;4.95;2.03;;;;;17.50;94041.00;;;;7416197;19;20143;-73
2023/07/31 07:36:32;;;;;;;6.75;2.50;;;;;17.90;94036.00;;;;7417698;19;20155;-74
2023/07/31 07:39:08;;;;;;;5.05;2.40;;;;;18.00;94013.00;;;;7417975;19;20590;-75
2023/07/31 07:41:35;;;;;;;4.93;2.10;;;;;18.60;94017.00;;;;7417892;19;20951;-71
2023/07/31 07:44:10;;;;;;;3.78;2.30;;;;;18.80;94021.00;;;;7386397;19;20136;-74
2023/07/31 07:46:44;;;;;;;4.32;2.03;;;;;19.00;94020.00;;;;7389808;19;20188;-76
2023/07/31 07:49:22;;;;;;;4.50;2.55;;;;;19.00;94020.00;;;;7387228;19;20671;-74
2023/07/31 07:51:50;;;;;;;5.13;2.25;;;;;18.60;94030.00;;;;7386233;19;20133;-73
2023/07/31 07:54:17;;;;;;;6.22;2.10;;;;;18.50;94030.00;;;;7389021;19;20133;-75
2023/07/31 07:56:51;;;;;;;3.70;2.17;;;;;18.60;94022.00;;;;7390133;19;20628;-73
2023/07/31 07:59:19;;;;;;;3.95;2.00;;;;;18.90;94023.00;;;;7388572;19;20139;-73
2023/07/31 08:01:57;;;;;;;8.07;2.42;;;;;18.90;94026.00;;;;7386700;19;20210;-78
2023/07/31 08:04:30;;;;;;;8.50;2.70;;;;;19.30;94033.00;;;;7390027;19;20195;-75
2023/07/31 08:07:04;;;;;;;6.97;2.53;;;;;19.30;94023.00;;;;7388209;19;20144;-76
2023/07/31 08:09:38;;;;;;;6.43;2.28;;;;;19.50;94022.00;;;;7386063;19;20152;-76
2023/07/31 08:12:12;;;;;;;6.95;2.38;;;;;19.40;94019.00;;;;7388320;19;20141;-76
2023/07/31 08:14:46;;;;;;;6.18;2.70;;;;;19.40;94032.00;;;;7387482;19;20480;-77
2023/07/31 08:17:14;;;;;;;5.90;2.30;;;;;19.10;94031.00;;;;7385173;19;20149;-75
2023/07/31 08:19:48;;;;;;;7.70;2.20;;;;;19.30;94024.00;;;;7386258;19;20175;-78
2023/07/31 08:22:16;;;;;;;8.75;2.70;;;;;19.40;94019.00;;;;7387264;19;20129;-77
2023/07/31 08:24:50;;;;;;;4.63;2.20;;;;;19.40;94021.00;;;;7387566;19;20141;-75
2023/07/31 08:27:18;;;;;;;5.45;2.60;;;;;19.50;94015.00;;;;7383130;19;20622;-77
2023/07/31 08:29:47;;;;;;;5.82;2.40;;;;;19.60;94009.00;;;;7386437;19;20184;-75
2023/07/31 08:32:27;;;;;;;5.93;2.40;;;;;19.40;94011.00;;;;7387337;19;20168;-75
2023/07/31 08:35:03;;;;;;;9.93;2.88;;;;;19.30;94018.00;;;;7386070;19;20132;-76
2023/07/31 08:37:38;;;;;;;6.00;2.78;;;;;19.60;94017.00;;;;7385918;19;20128;-74
2023/07/31 08:40:13;;;;;;;6.38;2.35;;;;;19.30;94017.00;;;;7384741;19;20159;-75
2023/07/31 08:42:49;;;;;;;4.82;2.33;;;;;19.30;94017.00;;;;7387594;19;20152;-76
2023/07/31 08:45:24;;;;;;;4.93;2.38;;;;;18.70;94022.00;;;;7387111;19;20166;-77
2023/07/31 08:47:59;;;;;;;4.57;2.15;;;;;18.50;94013.00;;;;7386136;19;20136;-77
2023/07/31 08:50:35;;;;;;;5.97;2.30;;;;;18.30;94032.00;;;;7386710;19;20163;-76
2023/07/31 08:53:03;;;;;;;9.18;2.67;;;;;18.30;94020.00;;;;7387846;19;20616;-76
2023/07/31 08:55:32;;;;;;;4.82;2.47;;;;;18.20;94010.00;;;;7385615;19;20746;-76
2023/07/31 08:58:06;;;;;;;5.93;2.72;;;;;18.60;93990.00;;;;7386115;19;20152;-75
2023/07/31 09:00:36;;;;;;;5.25;2.67;;;;;19.00;93993.00;;;;7385871;19;23969;-76
2023/07/31 09:03:21;;;;;;;4.22;2.40;;;;;19.20;94004.00;;;;7387007;19;20148;-76
2023/07/31 09:05:51;;;;;;;6.90;2.65;;;;;18.90;93992.00;;;;7386564;19;20182;-77
2023/07/31 09:08:29;;;;;;;4.22;2.75;;;;;18.80;94004.00;;;;7387657;19;20132;-76
2023/07/31 09:11:02;;;;;;;7.18;2.67;;;;;18.50;94003.00;;;;7387881;19;20471;-80
2023/07/31 09:13:39;;;;;;;6.45;2.42;;;;;18.80;93991.00;;;;7385569;19;20148;-80
2023/07/31 09:16:10;;;;;;;4.18;2.30;;;;;19.20;93991.00;;;;7384521;19;20140;-81
2023/07/31 09:18:56;;;;;;;5.35;2.65;;;;;19.40;94009.00;;;;7387667;19;20595;-80
2023/07/31 09:21:25;;;;;;;5.63;2.65;;;;;19.50;93992.00;;;;7385413;19;20152;-79
2023/07/31 09:24:02;;;;;;;5.30;2.80;;;;;19.20;94001.00;;;;7384682;19;20153;-80
2023/07/31 09:26:37;;;;;;;5.35;2.30;;;;;18.90;93994.00;;;;7385952;19;20473;-77
2023/07/31 09:29:19;;;;;;;9.55;2.70;;;;;19.20;93995.00;;;;7380299;19;20531;-81
2023/07/31 09:32:03;;;;;;;12.25;2.60;;;;;19.50;93982.00;;;;7383987;19;20160;-77
2023/07/31 09:34:44;;;;;;;3.90;2.45;;;;;19.50;93974.00;;;;7385106;19;20663;-81
2023/07/31 09:37:19;;;;;;;8.70;2.75;;;;;20.00;93969.00;;;;7386030;19;20132;-79
2023/07/31 09:39:58;;;;;;;4.65;2.50;;;;;19.90;93965.00;;;;7384422;19;20152;-78
2023/07/31 09:42:34;;;;;;;4.55;2.40;;;;;19.80;93958.00;;;;7385436;19;20168;-78
2023/07/31 09:45:09;;;;;;;6.82;2.70;;;;;19.90;93952.00;;;;7385543;19;20129;-79
2023/07/31 09:47:51;;;;;;;5.13;2.17;;;;;19.70;93955.00;;;;7386730;19;20132;-78
2023/07/31 09:50:21;;;;;;;5.57;2.35;;;;;20.00;93950.00;;;;7383903;19;20133;-77
2023/07/31 09:52:56;;;;;;;4.50;2.65;;;;;20.30;93935.00;;;;7385093;19;20550;-79
2023/07/31 09:55:25;;;;;;;5.40;2.25;;;;;20.30;93952.00;;;;7382783;19;20588;-78
2023/07/31 09:58:03;;;;;;;5.72;2.40;;;;;20.60;93938.00;;;;7383963;19;20148;-79
2023/07/31 10:00:39;;;;;;;5.47;2.72;;;;;20.20;93946.00;;;;7385063;19;20156;-78
2023/07/31 10:03:15;;;;;;;7.28;2.92;;;;;20.20;93937.00;;;;7384275;19;20499;-79
2023/07/31 10:05:49;;;;;;;7.13;2.65;;;;;20.20;93943.00;;;;7383907;19;20136;-79
2023/07/31 10:08:29;;;;;;;6.82;2.45;;;;;20.60;93909.00;;;;7382918;19;20139;-78
2023/07/31 10:11:06;;;;;;;5.15;2.40;;;;;21.20;93944.00;;;;7385276;19;20152;-79
2023/07/31 10:13:42;;;;;;;6.72;2.80;;;;;20.80;93922.00;;;;7383037;19;20157;-78
2023/07/31 10:16:17;;;;;;;4.50;2.17;;;;;21.10;93937.00;;;;7384319;19;20626;-78
2023/07/31 10:18:45;;;;;;;6.28;2.50;;;;;20.90;93946.00;;;;7384049;19;20125;-80
2023/07/31 10:21:24;;;;;;;5.45;2.85;;;;;21.30;93922.00;;;;7385638;19;20137;-78
2023/07/31 10:23:52;;;;;;;7.18;2.97;;;;;21.10;93938.00;;;;7386447;19;20132;-83
2023/07/31 10:26:31;;;;;;;7.28;2.20;;;;;21.10;93908.00;;;;7384106;19;20507;-80
2023/07/31 10:29:00;;;;;;;5.18;2.60;;;;;21.00;93925.00;;;;7380513;19;20149;-77
2023/07/31 10:31:42;;;;;;;6.75;3.40;;;;;20.90;93906.00;;;;7385946;19;20148;-78
2023/07/31 10:34:24;;;;;;;4.45;2.80;;;;;21.30;93906.00;;;;7383626;19;20156;-78
2023/07/31 10:37:23;;;;;;;9.90;2.67;;;;;21.20;93924.00;;;;7386327;19;20141;-79
2023/07/31 10:40:11;;;;;;;6.05;2.60;;;;;20.70;93930.00;;;;7383564;19;20976;-76
2023/07/31 10:42:47;;;;;;;7.13;2.70;;;;;20.30;93948.00;;;;7384456;19;20603;-79
2023/07/31 10:45:43;;;;;;;5.40;2.70;;;;;20.10;93946.00;;;;7383424;19;20641;-77
2023/07/31 10:48:23;;;;;;;4.72;2.55;;;;;20.10;93942.00;;;;7382965;19;20186;-77
2023/07/31 10:50:57;;;;;;;7.90;2.60;;;;;20.60;93912.00;;;;7382915;19;20156;-77
2023/07/31 10:53:28;;;;;;;4.28;2.42;;;;;20.90;93898.00;;;;7384718;19;20129;-77
2023/07/31 10:56:04;;;;;;;4.28;2.45;;;;;21.70;93934.00;;;;7382309;19;20622;-78
2023/07/31 10:58:32;;;;;;;5.90;2.60;;;;;21.60;93914.00;;;;7382657;19;20160;-78
2023/07/31 11:01:07;;;;;;;5.95;2.50;;;;;22.40;93905.00;;;;7383189;19;20167;-77
2023/07/31 11:03:48;;;;;;;7.30;2.72;;;;;22.40;93911.00;;;;7381354;19;20144;-77
2023/07/31 11:06:22;;;;;;;6.72;3.35;;;;;23.10;93890.00;;;;7382853;19;20169;-80
2023/07/31 11:08:56;;;;;;;7.30;2.85;;;;;24.10;93915.00;;;;7383452;19;20212;-77
2023/07/31 11:11:30;;;;;;;4.75;3.10;;;;;23.60;93933.00;;;;7383363;19;20573;-78
2023/07/31 11:14:04;;;;;;;5.78;2.50;;;;;22.90;93949.00;;;;7381201;19;20145;-76
2023/07/31 11:16:42;;;;;;;6.95;2.90;;;;;22.10;93943.00;;;;7381184;19;20151;-80
2023/07/31 11:19:10;;;;;;;5.93;2.97;;;;;21.60;93947.00;;;;7399635;19;20484;-78
2023/07/31 11:21:38;;;;;;;4.47;2.33;;;;;21.30;93935.00;;;;7392079;19;20159;-80
2023/07/31 11:24:13;;;;;;;8.25;2.67;;;;;21.50;93925.00;;;;7389697;19;20512;-79
2023/07/31 11:26:49;;;;;;;5.22;2.42;;;;;21.50;93915.00;;;;7387798;19;20185;-79
2023/07/31 11:29:28;;;;;;;4.82;2.40;;;;;21.70;93914.00;;;;7385285;19;20148;-77
2023/07/31 11:32:23;;;;;;;4.97;3.05;;;;;21.40;93903.00;;;;7388832;19;20168;-78
2023/07/31 11:34:57;;;;;;;5.80;2.92;;;;;21.80;93915.00;;;;7388791;19;20164;-79
2023/07/31 11:37:43;;;;;;;4.18;2.92;;;;;21.50;93915.00;;;;7390257;19;20128;-80
2023/07/31 11:40:18;;;;;;;7.20;2.47;;;;;20.80;93908.00;;;;7388002;19;20137;-79
2023/07/31 11:42:59;;;;;;;3.85;2.33;;;;;21.10;93909.00;;;;7389334;19;20660;-78
2023/07/31 11:45:35;;;;;;;3.00;2.55;;;;;21.40;93908.00;;;;7388911;19;20256;-80
2023/07/31 11:48:03;;;;;;;3.55;2.08;;;;;21.50;93897.00;;;;7389013;19;20141;-78
2023/07/31 11:50:38;;;;;;;5.55;2.63;;;;;21.10;93901.00;;;;7390098;19;20845;-78
2023/07/31 11:53:13;;;;;;;6.95;3.05;;;;;21.10;93891.00;;;;7388598;19;20737;-78
2023/07/31 11:55:41;;;;;;;6.97;2.47;;;;;21.90;93874.00;;;;7388849;19;20136;-80
2023/07/31 11:58:09;;;;;;;4.72;2.47;;;;;22.00;93897.00;;;;7388090;19;20183;-79
2023/07/31 12:00:44;;;;;;;6.40;2.30;;;;;21.70;93876.00;;;;7387111;19;21609;-76
2023/07/31 12:03:12;;;;;;;6.70;2.70;;;;;22.70;93884.00;;;;7390504;19;20137;-80
2023/07/31 12:05:48;;;;;;;6.55;2.35;;;;;22.50;93877.00;;;;7387312;19;20132;-79
2023/07/31 12:08:16;;;;;;;3.60;2.35;;;;;22.60;93879.00;;;;7388326;19;20129;-79
2023/07/31 12:10:52;;;;;;;6.72;2.65;;;;;22.80;93847.00;;;;7388186;19;20140;-79
2023/07/31 12:13:27;;;;;;;4.90;2.67;;;;;22.40;93844.00;;;;7387141;19;20144;-79
2023/07/31 12:16:00;;;;;;;3.45;2.60;;;;;22.90;93867.00;;;;7387415;19;20129;-79
2023/07/31 12:18:36;;;;;;;4.07;2.45;;;;;22.60;93854.00;;;;7388350;19;20168;-78
2023/07/31 12:21:13;;;;;;;4.63;2.35;;;;;23.60;93825.00;;;;7387596;19;20200;-79
2023/07/31 12:23:42;;;;;;;4.55;2.35;;;;;23.90;93842.00;;;;7382657;19;20149;-78
2023/07/31 12:26:17;;;;;;;3.60;2.40;;;;;23.70;93846.00;;;;7387569;19;20133;-77
2023/07/31 12:28:47;;;;;;;5.60;2.67;;;;;23.00;93824.00;;;;7387954;19;20151;-81
2023/07/31 12:31:35;;;;;;;4.47;2.53;;;;;23.40;93825.00;;;;7388876;19;20173;-82
2023/07/31 12:34:23;;;;;;;6.22;2.25;;;;;23.50;93832.00;;;;7386929;19;20741;-77
2023/07/31 12:36:58;;;;;;;5.45;2.92;;;;;23.90;93807.00;;;;7387024;19;20148;-79
2023/07/31 12:39:26;;;;;;;3.85;2.40;;;;;24.40;93802.00;;;;7390112;19;20575;-80
2023/07/31 12:42:00;;;;;;;5.38;2.55;;;;;24.90;93796.00;;;;7387919;19;20175;-80
2023/07/31 12:44:28;;;;;;;3.78;2.38;;;;;24.70;93830.00;;;;7389556;19;20160;-78
2023/07/31 12:47:04;;;;;;;3.92;2.50;;;;;23.70;93832.00;;;;7385821;19;20149;-78
2023/07/31 12:49:31;;;;;;;3.30;2.13;;;;;23.20;93839.00;;;;7386931;19;20160;-77
2023/07/31 12:52:06;;;;;;;4.40;2.30;;;;;22.90;93833.00;;;;7387490;19;20137;-78
2023/07/31 12:54:41;;;;;;;4.82;2.40;;;;;22.80;93838.00;;;;7387199;19;20129;-75